This is the latest recevied weather packets stored in our database for station/object WMSA. If no packets are shown the sender has not sent any weather packets the latest 10 day(s).
| Time | Temp. | Humidity | Pressure | Rain* | Wind** | Luminosity | Snow |
|---|---|---|---|---|---|---|---|
| 1777698589 | 33.89° C | 56% | 1008 hPa | - | - | - | - |
| 1777694988 | 31.67° C | 62% | 1010 hPa | - | - | - | - |
| 1777691388 | 30.56° C | 66% | 1010 hPa | - | - | - | - |
| 1777666187 | 25.56° C | 88% | 1008 hPa | - | - | - | - |
| 1777658987 | 25.56° C | 94% | 1009 hPa | - | - | - | - |
| 1777648187 | 25.56° C | 94% | 1010 hPa | - | - | - | - |
| 1777644587 | 25.56° C | 94% | 1009 hPa | - | - | - | - |
| 1777640991 | 25.56° C | 88% | 1009 hPa | - | - | - | - |
| 1777633786 | 25.56° C | 83% | 1009 hPa | - | - | - | - |
| 1777630779 | 25° C | 94% | 1007 hPa | - | - | - | - |
| 1777630190 | 23.89° C | 94% | 1007 hPa | - | - | - | - |
| 1777629579 | 25° C | 94% | 1008 hPa | - | - | - | - |
| 1777628979 | 25° C | 88% | 1008 hPa | - | - | - | - |
| 1777628379 | 27.78° C | 83% | 1008 hPa | - | - | - | - |
| 1777626591 | 32.78° C | 66% | 1007 hPa | - | - | - | - |
| 1777622989 | 33.89° C | 63% | 1006 hPa | - | - | - | - |
| 1777619386 | 32.78° C | 62% | 1006 hPa | - | - | - | - |
| 1777615787 | 32.78° C | 59% | 1008 hPa | - | - | - | - |
| 1777612190 | 33.89° C | 52% | 1009 hPa | - | - | - | - |
| 1777608585 | 33.89° C | 52% | 1010 hPa | - | - | - | - |
| 1777604985 | 32.78° C | 59% | 1010 hPa | - | - | - | - |
| 1777601386 | 30.56° C | 70% | 1010 hPa | - | - | - | - |
| 1777583390 | 26.67° C | 88% | 1008 hPa | - | - | - | - |
| 1777579786 | 26.67° C | 88% | 1008 hPa | - | - | - | - |
| 1777572585 | 27.78° C | 83% | 1009 hPa | - | - | - | - |
* Rain since midnight (hover to see other rain measurements)
** Current wind speed in m/s (hover to see current wind gust speed)